Time;durP1;ratioP1;P1;durP2;ratioP2;P2;SDS_P1;SDS_P2;PMS_P1;PMS_P2;Temp;Humidity;BMP_temperature;BMP_pressure;BME280_temperature;BME280_humidity;BME280_pressure;Samples;Min_cycle;Max_cycle;Signal;HPM_P1;HPM_P2
2023/02/11 00:00:25;;;;;;;12.67;4.87;;;-1.50;98.00;;;;;;5009859;28;20479;-64
2023/02/11 00:02:52;;;;;;;17.50;4.83;;;-1.70;98.00;;;;;;5011150;28;20485;-65
2023/02/11 00:05:19;;;;;;;10.37;4.70;;;-1.70;98.00;;;;;;5011019;28;20458;-65
2023/02/11 00:07:49;;;;;;;10.37;4.10;;;-1.60;98.00;;;;;;5013892;28;20800;-65
2023/02/11 00:10:17;;;;;;;16.23;5.87;;;-1.60;98.00;;;;;;5014706;28;20464;-65
2023/02/11 00:12:44;;;;;;;6.80;3.70;;;-1.50;98.00;;;;;;5015060;28;20450;-65
2023/02/11 00:15:11;;;;;;;8.00;4.50;;;-1.50;98.00;;;;;;5014621;28;20458;-65
2023/02/11 00:17:38;;;;;;;7.43;4.90;;;-1.60;98.00;;;;;;5013517;28;20984;-64
2023/02/11 00:20:07;;;;;;;9.67;5.17;;;-1.70;98.00;;;;;;5014573;28;20462;-64
2023/02/11 00:22:34;;;;;;;5.93;3.63;;;-1.70;98.00;;;;;;5014442;28;20486;-64
2023/02/11 00:25:01;;;;;;;6.67;4.90;;;-1.70;98.00;;;;;;5014456;28;20462;-64
2023/02/11 00:27:30;;;;;;;10.27;5.67;;;-1.70;98.00;;;;;;5014777;28;20992;-64
2023/02/11 00:29:59;;;;;;;6.83;3.87;;;-1.80;98.00;;;;;;5014313;28;20835;-65
2023/02/11 00:32:26;;;;;;;12.47;6.23;;;-1.70;98.00;;;;;;5014662;28;20512;-64
2023/02/11 00:34:54;;;;;;;12.23;4.60;;;-1.70;98.00;;;;;;5014810;28;20465;-64
2023/02/11 00:37:21;;;;;;;12.67;5.40;;;-1.70;98.00;;;;;;5014590;28;20466;-64
2023/02/11 00:39:49;;;;;;;6.97;3.87;;;-1.70;98.00;;;;;;5014158;28;20907;-64
2023/02/11 00:42:16;;;;;;;11.87;5.23;;;-1.60;98.00;;;;;;5014190;28;20996;-64
2023/02/11 00:44:45;;;;;;;6.87;4.23;;;-1.50;98.00;;;;;;5014178;28;20932;-64
2023/02/11 00:47:14;;;;;;;12.27;4.43;;;-1.50;98.00;;;;;;5014303;28;20459;-65
2023/02/11 00:49:41;;;;;;;7.03;5.07;;;-1.60;98.00;;;;;;5014145;28;20466;-64
2023/02/11 00:52:08;;;;;;;11.00;5.43;;;-1.90;98.00;;;;;;5014143;28;20457;-65
2023/02/11 00:54:36;;;;;;;6.80;3.50;;;-1.90;98.00;;;;;;5013947;28;20863;-65
2023/02/11 00:57:03;;;;;;;11.43;4.43;;;-2.00;98.00;;;;;;5012535;28;21116;-65
2023/02/11 00:59:31;;;;;;;10.07;6.07;;;-2.10;98.00;;;;;;5013792;28;20465;-65
2023/02/11 01:02:00;;;;;;;12.23;4.57;;;-1.90;98.00;;;;;;5013826;28;20582;-64
2023/02/11 01:04:29;;;;;;;11.27;5.70;;;-1.90;98.00;;;;;;5013839;28;20798;-64
2023/02/11 01:06:56;;;;;;;6.60;3.50;;;-1.80;98.00;;;;;;5013681;28;20470;-64
2023/02/11 01:09:23;;;;;;;7.33;3.97;;;-1.70;98.00;;;;;;5014043;28;20858;-64
2023/02/11 01:11:50;;;;;;;7.63;3.00;;;-1.70;98.00;;;;;;5013614;28;20937;-64
2023/02/11 01:14:17;;;;;;;18.87;5.47;;;-1.80;98.00;;;;;;5013572;28;20461;-64
2023/02/11 01:16:45;;;;;;;9.43;4.67;;;-1.80;98.00;;;;;;5013881;28;20871;-64
2023/02/11 01:19:13;;;;;;;6.43;4.80;;;-2.00;98.00;;;;;;5012229;28;20461;-65
2023/02/11 01:21:40;;;;;;;10.40;5.37;;;-2.10;98.00;;;;;;5014021;28;20461;-65
2023/02/11 01:24:07;;;;;;;9.17;4.43;;;-2.00;98.00;;;;;;5013311;28;20481;-65
2023/02/11 01:26:34;;;;;;;7.07;3.90;;;-1.90;98.00;;;;;;5013569;28;20459;-65
2023/02/11 01:29:02;;;;;;;7.90;3.80;;;-1.80;98.00;;;;;;5013572;28;20951;-64
2023/02/11 01:31:31;;;;;;;5.73;4.23;;;-2.00;98.00;;;;;;5013246;28;20903;-64
2023/02/11 01:33:57;;;;;;;9.80;5.23;;;-2.00;98.00;;;;;;5013491;28;20545;-64
2023/02/11 01:36:26;;;;;;;5.27;2.83;;;-2.10;98.00;;;;;;5013387;28;20835;-65
2023/02/11 01:38:54;;;;;;;14.13;4.83;;;-1.90;98.00;;;;;;5013352;28;20461;-64
2023/02/11 01:41:21;;;;;;;7.20;4.37;;;-1.80;98.00;;;;;;5013301;28;20471;-64
2023/02/11 01:43:49;;;;;;;10.43;4.10;;;-1.80;98.00;;;;;;5013248;28;20486;-65
2023/02/11 01:46:32;;;;;;;10.50;5.25;;;-2.00;98.00;;;;;;5013121;28;20464;-64
2023/02/11 01:49:04;;;;;;;6.60;3.40;;;-2.20;98.00;;;;;;5011091;28;20225;-64
2023/02/11 01:51:36;;;;;;;10.93;5.27;;;-2.30;98.00;;;;;;5013073;28;20541;-64
2023/02/11 01:59:43;;;;;;;6.50;3.60;;;-2.60;98.00;;;;;;5012955;28;20959;-64
2023/02/11 02:02:13;;;;;;;7.97;5.40;;;-2.60;98.00;;;;;;5012778;28;20690;-64
2023/02/11 02:04:46;;;;;;;5.93;3.30;;;-2.60;98.00;;;;;;5012745;28;20871;-65
2023/02/11 02:07:27;;;;;;;9.98;5.20;;;-2.60;98.00;;;;;;5012574;28;20210;-65
2023/02/11 02:10:00;;;;;;;11.87;4.47;;;-2.50;98.00;;;;;;5011502;28;20210;-65
2023/02/11 02:12:27;;;;;;;14.10;5.47;;;-2.40;98.00;;;;;;5012577;28;20471;-64
2023/02/11 02:15:17;;;;;;;4.78;3.30;;;-2.40;98.00;;;;;;5012629;28;20195;-64
2023/02/11 02:17:51;;;;;;;9.03;3.80;;;-2.30;98.00;;;;;;5012486;28;20576;-65
2023/02/11 02:20:41;;;;;;;8.40;5.23;;;-2.30;98.00;;;;;;5012253;28;20460;-64
2023/02/11 02:23:28;;;;;;;11.00;4.23;;;-2.40;98.00;;;;;;5012405;28;20488;-64
2023/02/11 02:26:32;;;;;;;7.53;4.30;;;-2.30;98.00;;;;;;5012372;28;20473;-64
2023/02/11 02:29:22;;;;;;;10.63;4.43;;;-2.10;98.00;;;;;;5012276;28;20519;-64
2023/02/11 02:32:15;;;;;;;7.27;4.07;;;-2.10;98.00;;;;;;5012264;28;20534;-65
2023/02/11 02:34:50;;;;;;;9.07;3.43;;;-2.00;98.00;;;;;;5012189;28;20461;-64
2023/02/11 02:37:21;;;;;;;7.70;4.00;;;-2.00;98.00;;;;;;5012067;28;20460;-64
2023/02/11 02:39:50;;;;;;;6.67;4.43;;;-2.20;98.00;;;;;;5012422;28;20864;-64
2023/02/11 02:42:19;;;;;;;8.35;4.70;;;-2.20;98.00;;;;;;5011885;28;20459;-64
2023/02/11 02:44:49;;;;;;;8.83;4.00;;;-2.10;98.00;;;;;;5011930;28;20520;-65
2023/02/11 02:47:18;;;;;;;7.27;4.70;;;-2.20;98.00;;;;;;5011984;28;20519;-65
2023/02/11 02:49:45;;;;;;;8.00;3.27;;;-2.20;98.00;;;;;;5011741;28;20469;-64
2023/02/11 02:52:23;;;;;;;4.07;3.40;;;-2.10;98.00;;;;;;5010609;28;20461;-65
2023/02/11 02:55:25;;;;;;;11.77;4.67;;;-2.20;98.00;;;;;;5010614;28;20451;-65
2023/02/11 02:58:26;;;;;;;4.90;2.80;;;-2.10;98.00;;;;;;5011838;28;20520;-65
2023/02/11 03:00:59;;;;;;;7.80;4.10;;;-2.00;98.00;;;;;;5011693;28;20462;-64
2023/02/11 03:03:36;;;;;;;9.80;4.80;;;-1.70;98.00;;;;;;5011636;28;21003;-65
2023/02/11 03:06:08;;;;;;;8.70;4.63;;;-1.70;98.00;;;;;;5011561;28;20458;-64
2023/02/11 03:08:42;;;;;;;7.33;3.20;;;-1.70;98.00;;;;;;5011612;28;20446;-64
2023/02/11 03:11:11;;;;;;;5.43;3.83;;;-1.70;98.00;;;;;;5011670;28;20452;-64
2023/02/11 03:13:40;;;;;;;7.17;3.83;;;-1.70;98.00;;;;;;5011631;28;20803;-65
2023/02/11 03:16:12;;;;;;;9.07;4.97;;;-1.70;98.00;;;;;;5011452;28;20452;-64
2023/02/11 03:18:44;;;;;;;6.60;4.13;;;-1.70;98.00;;;;;;5011524;28;20464;-65
2023/02/11 03:21:12;;;;;;;8.17;3.80;;;-1.80;98.00;;;;;;5011554;28;20461;-64
2023/02/11 03:23:44;;;;;;;4.57;3.78;;;-1.90;98.00;;;;;;5011525;28;20830;-65
2023/02/11 03:26:18;;;;;;;12.47;4.87;;;-2.00;98.00;;;;;;5011620;28;20694;-64
2023/02/11 03:28:55;;;;;;;10.53;4.10;;;-2.00;98.00;;;;;;5010704;28;20457;-64
2023/02/11 03:31:30;;;;;;;11.00;3.47;;;-2.10;98.00;;;;;;5011389;28;20522;-65
2023/02/11 03:34:04;;;;;;;11.53;4.07;;;-2.00;98.00;;;;;;5011166;28;20510;-64
2023/02/11 03:36:39;;;;;;;5.20;3.23;;;-2.00;98.00;;;;;;5011470;28;20465;-65
2023/02/11 03:39:12;;;;;;;6.93;3.93;;;-1.90;98.00;;;;;;5010154;28;20458;-65
2023/02/11 03:41:42;;;;;;;14.30;4.47;;;-1.90;98.00;;;;;;5012401;28;20469;-64
2023/02/11 03:44:10;;;;;;;6.13;4.50;;;-1.80;98.00;;;;;;5015372;28;20493;-64
2023/02/11 03:46:40;;;;;;;8.60;4.07;;;-1.70;98.00;;;;;;5015297;28;20458;-64
2023/02/11 03:49:13;;;;;;;3.90;3.53;;;-1.50;98.00;;;;;;5015183;28;20646;-65
2023/02/11 03:51:40;;;;;;;8.20;4.10;;;-1.40;98.00;;;;;;5015293;28;20460;-65
2023/02/11 03:54:13;;;;;;;10.10;4.67;;;-1.40;98.00;;;;;;5015234;28;20523;-64
2023/02/11 03:56:47;;;;;;;12.80;4.63;;;-1.30;98.00;;;;;;5013871;28;20523;-64
2023/02/11 03:59:23;;;;;;;8.40;4.73;;;-1.20;98.00;;;;;;5015127;28;20473;-65
2023/02/11 04:01:50;;;;;;;10.30;4.00;;;-1.20;98.00;;;;;;5015054;28;20469;-65
2023/02/11 04:04:18;;;;;;;13.13;5.23;;;-1.20;98.00;;;;;;5014776;28;20494;-64
2023/02/11 04:06:45;;;;;;;8.93;4.30;;;-1.10;98.00;;;;;;5014895;28;20469;-64
2023/02/11 04:09:13;;;;;;;9.87;5.20;;;-1.00;98.00;;;;;;5014544;28;21021;-64
2023/02/11 04:11:40;;;;;;;5.43;3.33;;;-0.80;98.00;;;;;;5015036;28;20454;-64
2023/02/11 04:14:07;;;;;;;14.73;4.53;;;-0.90;98.00;;;;;;5014728;28;20528;-64
2023/02/11 04:16:37;;;;;;;6.17;3.63;;;-1.00;98.00;;;;;;5014687;28;20453;-65
2023/02/11 04:19:04;;;;;;;11.03;5.13;;;-1.10;98.00;;;;;;5014803;28;20464;-64
2023/02/11 04:21:33;;;;;;;4.97;3.40;;;-1.20;98.00;;;;;;5014883;28;20455;-64
2023/02/11 04:24:00;;;;;;;8.03;4.30;;;-1.20;98.00;;;;;;5014501;28;20536;-64
2023/02/11 04:26:27;;;;;;;4.30;2.70;;;-1.20;98.00;;;;;;5014998;28;20454;-64
2023/02/11 04:28:54;;;;;;;10.40;3.80;;;-1.10;98.00;;;;;;5013493;28;20520;-64
2023/02/11 04:31:21;;;;;;;7.63;3.93;;;-1.00;98.00;;;;;;5014447;28;20524;-64
2023/02/11 04:33:48;;;;;;;5.93;3.30;;;-0.90;98.00;;;;;;5014272;28;20868;-65
2023/02/11 04:36:15;;;;;;;4.90;3.40;;;-0.80;98.00;;;;;;5014449;28;20465;-64
2023/02/11 04:38:44;;;;;;;7.80;3.90;;;-0.80;98.00;;;;;;5014223;28;20457;-65
2023/02/11 04:41:11;;;;;;;8.13;4.90;;;-0.80;98.00;;;;;;5013109;28;20808;-64
2023/02/11 04:43:38;;;;;;;22.23;3.83;;;-0.70;98.00;;;;;;5013013;28;20532;-64
2023/02/11 04:46:05;;;;;;;5.10;3.30;;;-0.70;98.00;;;;;;5014117;28;20454;-64
2023/02/11 04:48:33;;;;;;;9.50;4.07;;;-0.80;98.00;;;;;;5013927;28;20999;-64
2023/02/11 04:51:00;;;;;;;8.80;4.30;;;-0.90;98.00;;;;;;5014120;28;20461;-64
2023/02/11 04:53:27;;;;;;;10.60;5.10;;;-0.90;98.00;;;;;;5013984;28;20615;-65
2023/02/11 04:55:56;;;;;;;7.33;3.70;;;-0.90;98.00;;;;;;5014081;28;20467;-64
2023/02/11 04:58:23;;;;;;;7.70;3.50;;;-0.80;98.00;;;;;;5014045;28;20486;-64
2023/02/11 05:00:50;;;;;;;11.00;5.43;;;-0.70;98.00;;;;;;5013804;28;20918;-64
2023/02/11 05:03:17;;;;;;;6.23;3.80;;;-0.70;98.00;;;;;;5013735;28;20544;-65
2023/02/11 05:05:44;;;;;;;9.33;4.90;;;-0.60;98.00;;;;;;5013612;28;20463;-64
2023/02/11 05:08:12;;;;;;;9.80;5.23;;;-0.50;98.00;;;;;;5013691;28;20460;-65
2023/02/11 05:10:39;;;;;;;3.07;2.77;;;-0.60;98.00;;;;;;5013695;28;20461;-64
2023/02/11 05:13:07;;;;;;;6.00;3.50;;;-0.60;98.00;;;;;;5013646;28;20453;-65
2023/02/11 05:15:34;;;;;;;5.67;3.93;;;-0.50;98.00;;;;;;5013467;28;20521;-64
2023/02/11 05:18:02;;;;;;;4.90;4.00;;;-0.40;98.00;;;;;;5013648;28;20462;-64
2023/02/11 05:20:29;;;;;;;6.57;3.17;;;-0.40;98.00;;;;;;5013609;28;20859;-64
2023/02/11 05:22:56;;;;;;;7.70;4.53;;;-0.50;98.00;;;;;;5012674;28;20850;-65
2023/02/11 05:25:23;;;;;;;4.03;3.63;;;-0.50;98.00;;;;;;5013842;28;20486;-65
2023/02/11 05:27:50;;;;;;;8.47;4.07;;;-0.60;98.00;;;;;;5013373;28;20462;-63
2023/02/11 05:30:19;;;;;;;9.17;4.70;;;-0.50;98.00;;;;;;5013409;28;20474;-64
2023/02/11 05:32:46;;;;;;;8.07;4.50;;;-0.60;98.00;;;;;;5013370;28;20493;-64
2023/02/11 05:35:13;;;;;;;14.37;5.50;;;-0.50;98.00;;;;;;5013283;28;20463;-64
2023/02/11 05:37:40;;;;;;;6.30;4.33;;;-0.40;98.00;;;;;;5013273;28;20467;-64
2023/02/11 05:40:08;;;;;;;7.60;4.33;;;-0.40;98.00;;;;;;5013071;28;20520;-64
2023/02/11 05:42:36;;;;;;;4.73;3.50;;;-0.40;98.00;;;;;;5013306;28;20459;-64
2023/02/11 05:45:03;;;;;;;9.97;5.70;;;-0.30;98.00;;;;;;5011836;28;20491;-64
2023/02/11 05:47:32;;;;;;;7.73;4.13;;;-0.50;98.00;;;;;;5013270;28;20833;-64
2023/02/11 05:49:59;;;;;;;5.67;2.97;;;-0.50;98.00;;;;;;5012817;28;20851;-64
2023/02/11 05:52:26;;;;;;;8.90;3.70;;;-0.50;98.00;;;;;;5012869;28;20520;-64
2023/02/11 05:54:53;;;;;;;7.60;4.00;;;-0.50;98.00;;;;;;5012703;28;20873;-64
2023/02/11 05:57:20;;;;;;;13.03;5.10;;;-0.50;98.00;;;;;;5011980;28;20466;-65
2023/02/11 05:59:47;;;;;;;9.63;5.77;;;-0.50;98.00;;;;;;5012720;28;20461;-64
2023/02/11 06:02:14;;;;;;;10.23;4.60;;;-0.60;98.00;;;;;;5012817;28;20517;-64
2023/02/11 06:04:43;;;;;;;11.70;4.63;;;-0.60;98.00;;;;;;5011638;28;20485;-64
2023/02/11 06:07:10;;;;;;;6.63;3.90;;;-0.60;98.00;;;;;;5012615;28;20556;-64
2023/02/11 06:09:37;;;;;;;7.13;4.50;;;-0.60;98.00;;;;;;5012845;28;20458;-65
2023/02/11 06:12:05;;;;;;;11.03;4.90;;;-0.70;98.00;;;;;;5012684;28;21025;-65
2023/02/11 06:14:33;;;;;;;7.87;3.80;;;-0.60;98.00;;;;;;5012563;28;20454;-65
2023/02/11 06:17:00;;;;;;;10.80;4.13;;;-0.40;98.00;;;;;;5012514;28;20494;-64
2023/02/11 06:19:27;;;;;;;9.30;3.57;;;-0.20;98.00;;;;;;5012517;28;20456;-65
2023/02/11 06:21:56;;;;;;;11.73;3.70;;;-0.30;98.00;;;;;;5012737;28;20532;-65
2023/02/11 06:24:24;;;;;;;7.20;4.20;;;-0.30;98.00;;;;;;5012475;28;20576;-64
2023/02/11 06:26:51;;;;;;;6.10;4.07;;;-0.30;98.00;;;;;;5012428;28;20505;-64
2023/02/11 06:29:18;;;;;;;11.07;5.57;;;-0.20;98.00;;;;;;5012386;28;20762;-64
2023/02/11 06:31:45;;;;;;;13.27;5.43;;;-0.30;98.00;;;;;;5012320;28;20475;-65
2023/02/11 06:34:12;;;;;;;5.93;4.00;;;-0.30;98.00;;;;;;5012149;28;20481;-65
2023/02/11 06:36:42;;;;;;;9.00;4.40;;;-0.30;98.00;;;;;;5012134;28;20463;-64
2023/02/11 06:39:12;;;;;;;8.53;4.20;;;-0.30;98.00;;;;;;5012178;28;20560;-64
2023/02/11 06:41:39;;;;;;;7.73;4.50;;;-0.40;98.00;;;;;;5012531;28;20463;-64
2023/02/11 06:44:07;;;;;;;44.00;4.30;;;-0.40;98.00;;;;;;5011887;28;21023;-65
2023/02/11 06:46:34;;;;;;;10.60;6.00;;;-0.40;98.00;;;;;;5011838;28;20459;-63
2023/02/11 06:49:01;;;;;;;9.37;4.33;;;-0.50;98.00;;;;;;5011898;28;20467;-63
2023/02/11 06:51:28;;;;;;;22.53;5.20;;;-0.40;98.00;;;;;;5010707;28;20463;-63
2023/02/11 06:53:55;;;;;;;11.60;4.93;;;-0.50;98.00;;;;;;5011733;28;20463;-63
2023/02/11 06:56:26;;;;;;;7.80;3.63;;;-0.20;98.00;;;;;;5011842;28;20469;-63
2023/02/11 06:58:54;;;;;;;8.27;3.70;;;-0.10;98.00;;;;;;5011302;28;20532;-63
2023/02/11 07:01:22;;;;;;;7.80;3.73;;;0.00;98.00;;;;;;5011799;28;20622;-64
2023/02/11 07:03:50;;;;;;;7.50;3.83;;;0.00;98.00;;;;;;5011670;28;20553;-74
2023/02/11 07:06:19;;;;;;;6.87;4.97;;;0.10;98.00;;;;;;5011961;28;20459;-74
2023/02/11 07:08:47;;;;;;;7.80;5.10;;;0.00;98.00;;;;;;5011781;28;20463;-74
2023/02/11 07:11:19;;;;;;;11.17;5.60;;;0.00;98.00;;;;;;5011564;28;20489;-75
2023/02/11 07:13:48;;;;;;;6.77;4.37;;;-0.10;98.00;;;;;;5011858;28;20848;-74
2023/02/11 07:16:17;;;;;;;14.93;4.83;;;-0.10;98.00;;;;;;5011534;28;20882;-74
2023/02/11 07:18:45;;;;;;;12.67;5.07;;;0.00;98.00;;;;;;5011961;28;20488;-73
2023/02/11 07:21:13;;;;;;;7.33;5.30;;;0.00;98.00;;;;;;5011856;28;20481;-74
2023/02/11 07:23:48;;;;;;;11.80;4.97;;;0.10;98.00;;;;;;5011684;28;20462;-73
2023/02/11 07:26:18;;;;;;;6.23;4.50;;;0.10;98.00;;;;;;5011615;28;20872;-73
2023/02/11 07:28:45;;;;;;;15.13;5.07;;;0.10;98.00;;;;;;5011464;28;20466;-74
2023/02/11 07:31:17;;;;;;;9.60;5.37;;;0.20;98.00;;;;;;5011400;28;20475;-73
2023/02/11 07:33:45;;;;;;;11.97;4.87;;;0.30;98.00;;;;;;5011931;28;20466;-73
2023/02/11 07:36:14;;;;;;;11.53;5.90;;;0.50;98.00;;;;;;5011467;28;20543;-74
2023/02/11 07:38:41;;;;;;;6.13;4.37;;;0.50;98.00;;;;;;5011469;28;20796;-74
2023/02/11 07:41:13;;;;;;;12.03;5.00;;;0.50;98.00;;;;;;5011206;28;20451;-74
2023/02/11 07:43:40;;;;;;;14.50;4.73;;;0.60;98.00;;;;;;5011396;28;21012;-74
2023/02/11 07:46:10;;;;;;;11.43;4.87;;;0.90;98.00;;;;;;5011291;28;20905;-73
2023/02/11 07:48:38;;;;;;;15.90;6.93;;;0.90;98.00;;;;;;5010111;28;20946;-73
2023/02/11 07:51:07;;;;;;;10.10;5.93;;;0.80;98.00;;;;;;5011219;28;20459;-74
2023/02/11 07:53:34;;;;;;;11.10;6.17;;;0.70;98.00;;;;;;5011358;28;20479;-74
2023/02/11 07:56:02;;;;;;;8.00;5.00;;;0.60;98.00;;;;;;5010965;28;20466;-73
2023/02/11 07:58:30;;;;;;;22.20;4.87;;;0.70;98.00;;;;;;5011513;28;20459;-74
2023/02/11 08:01:02;;;;;;;13.77;5.10;;;0.80;98.00;;;;;;5011042;28;20454;-74
2023/02/11 08:03:29;;;;;;;7.37;4.63;;;1.00;98.00;;;;;;5011061;28;20551;-74
2023/02/11 08:05:57;;;;;;;12.30;5.67;;;1.10;98.00;;;;;;5009637;28;20985;-74
2023/02/11 08:08:27;;;;;;;12.27;7.27;;;1.20;98.00;;;;;;5011002;28;20459;-74
2023/02/11 08:10:54;;;;;;;16.97;6.33;;;1.30;98.00;;;;;;5010669;28;20462;-74
2023/02/11 08:13:23;;;;;;;8.27;4.80;;;1.40;98.00;;;;;;5011268;28;20819;-74
2023/02/11 08:15:50;;;;;;;14.07;6.03;;;1.30;98.00;;;;;;5010991;28;20452;-74
2023/02/11 08:18:17;;;;;;;9.83;5.47;;;1.30;98.00;;;;;;5011329;28;20452;-73
2023/02/11 08:20:44;;;;;;;9.20;6.07;;;1.40;98.00;;;;;;5011053;28;20456;-75
2023/02/11 08:23:12;;;;;;;11.07;6.50;;;1.50;98.00;;;;;;5010988;28;20466;-74
2023/02/11 08:25:39;;;;;;;9.40;4.40;;;1.50;98.00;;;;;;5011106;28;20483;-74
2023/02/11 08:28:07;;;;;;;8.43;5.30;;;1.50;98.00;;;;;;5012703;28;20557;-74
2023/02/11 08:30:35;;;;;;;12.07;5.23;;;1.60;98.00;;;;;;5014421;28;20525;-74
2023/02/11 08:33:02;;;;;;;6.97;6.10;;;1.60;98.00;;;;;;5014375;28;20462;-74
2023/02/11 08:35:31;;;;;;;23.50;5.43;;;1.90;98.00;;;;;;5014260;28;20456;-74
2023/02/11 08:37:58;;;;;;;10.30;5.03;;;1.90;98.00;;;;;;5014270;28;21029;-74
2023/02/11 08:40:27;;;;;;;20.40;7.13;;;2.00;98.00;;;;;;5014486;28;20466;-74
2023/02/11 08:42:54;;;;;;;10.23;5.43;;;1.90;98.00;;;;;;5014072;28;20451;-74
2023/02/11 08:45:21;;;;;;;7.90;5.60;;;2.10;98.00;;;;;;5014116;28;20483;-74
2023/02/11 08:47:48;;;;;;;10.63;5.07;;;2.20;98.00;;;;;;5014161;28;20459;-74
2023/02/11 08:50:15;;;;;;;11.43;5.70;;;2.10;98.00;;;;;;5014007;28;20969;-74
2023/02/11 08:52:43;;;;;;;13.50;5.37;;;2.10;98.00;;;;;;5014179;28;20470;-74
2023/02/11 08:55:10;;;;;;;16.57;4.87;;;2.10;98.00;;;;;;5013914;28;20966;-75
2023/02/11 08:57:40;;;;;;;8.87;5.03;;;2.00;98.00;;;;;;5013894;28;20517;-75
2023/02/11 09:00:09;;;;;;;8.37;5.10;;;2.00;98.00;;;;;;5013715;28;20462;-74
2023/02/11 09:02:36;;;;;;;7.57;4.43;;;2.00;98.00;;;;;;5013986;28;20459;-74
2023/02/11 09:05:04;;;;;;;15.20;6.63;;;2.10;98.00;;;;;;5013836;28;20494;-75
2023/02/11 09:07:31;;;;;;;11.70;5.60;;;2.20;98.00;;;;;;5014040;28;20467;-75
2023/02/11 09:09:58;;;;;;;19.93;6.60;;;2.40;98.00;;;;;;5012512;28;20478;-74
2023/02/11 09:12:25;;;;;;;14.97;7.20;;;2.60;98.00;;;;;;5013596;28;20452;-74
2023/02/11 09:14:56;;;;;;;15.23;5.87;;;2.70;98.00;;;;;;5013641;28;20460;-73
2023/02/11 09:17:25;;;;;;;11.47;5.67;;;2.80;98.00;;;;;;5014113;28;20459;-74
2023/02/11 09:19:52;;;;;;;11.67;6.20;;;2.90;98.00;;;;;;5013825;28;20464;-74
2023/02/11 09:22:19;;;;;;;14.13;5.30;;;2.90;98.00;;;;;;5013766;28;20456;-68
2023/02/11 09:24:46;;;;;;;11.33;5.83;;;2.90;98.00;;;;;;5014069;28;20721;-74
2023/02/11 09:27:13;;;;;;;12.67;5.50;;;2.90;98.00;;;;;;5013353;28;20456;-74
2023/02/11 09:29:40;;;;;;;7.67;4.90;;;3.10;98.00;;;;;;5013144;28;20459;-74
2023/02/11 09:32:17;;;;;;;10.20;6.03;;;3.00;98.00;;;;;;5013325;28;20487;-75
2023/02/11 09:34:44;;;;;;;10.60;5.33;;;3.00;98.00;;;;;;5013300;28;20467;-74
2023/02/11 09:37:12;;;;;;;9.10;5.70;;;3.10;98.00;;;;;;5013415;28;20464;-74
2023/02/11 09:39:39;;;;;;;11.87;5.20;;;3.20;98.00;;;;;;5012001;28;20464;-75
2023/02/11 09:42:29;;;;;;;8.70;5.57;;;3.20;98.00;;;;;;5012891;28;20456;-75
2023/02/11 09:44:59;;;;;;;12.83;6.17;;;3.40;98.00;;;;;;5012886;28;20546;-76
2023/02/11 09:47:31;;;;;;;13.33;5.70;;;3.60;98.00;;;;;;5011868;28;20464;-74
2023/02/11 09:50:03;;;;;;;18.60;6.27;;;3.70;98.00;;;;;;5013047;28;20452;-75
2023/02/11 09:52:38;;;;;;;8.73;4.60;;;3.90;98.00;;;;;;5012923;28;20463;-75
2023/02/11 09:55:15;;;;;;;13.17;5.73;;;4.10;98.00;;;;;;5012843;28;20737;-75
2023/02/11 09:57:42;;;;;;;15.03;4.40;;;4.20;98.00;;;;;;5012923;28;20841;-75
2023/02/11 10:00:19;;;;;;;10.67;6.40;;;4.40;98.00;;;;;;5012921;28;20539;-75
2023/02/11 10:03:11;;;;;;;6.50;4.30;;;4.50;98.00;;;;;;5013073;28;20464;-75
2023/02/11 10:05:51;;;;;;;10.00;4.80;;;4.70;98.00;;;;;;5000145;28;20480;-75
2023/02/11 10:08:26;;;;;;;14.57;5.23;;;4.70;98.00;;;;;;5011853;28;20462;-74
2023/02/11 10:10:59;;;;;;;11.90;4.60;;;4.90;98.00;;;;;;5012756;28;20471;-75
2023/02/11 10:13:41;;;;;;;7.50;4.03;;;4.80;98.00;;;;;;5013113;28;20516;-75
2023/02/11 10:16:22;;;;;;;10.03;4.70;;;4.80;98.00;;;;;;5012480;28;20467;-75
2023/02/11 10:19:12;;;;;;;14.60;5.20;;;4.90;98.00;;;;;;5011716;28;20568;-75
2023/02/11 10:21:50;;;;;;;10.00;4.57;;;4.90;98.00;;;;;;5012592;28;20460;-75
2023/02/11 10:24:18;;;;;;;7.00;3.40;;;5.00;98.00;;;;;;5012835;28;20541;-74
2023/02/11 10:26:46;;;;;;;7.80;3.87;;;5.20;98.00;;;;;;5012359;28;20485;-75
2023/02/11 10:29:25;;;;;;;16.30;4.00;;;5.30;98.00;;;;;;5012479;28;20810;-76
2023/02/11 10:31:53;;;;;;;12.80;5.50;;;5.30;98.00;;;;;;5012344;28;20995;-75
2023/02/11 10:34:21;;;;;;;9.63;4.87;;;5.40;98.00;;;;;;5012076;28;20469;-75
2023/02/11 10:36:48;;;;;;;10.23;5.20;;;5.50;98.00;;;;;;5012172;28;20857;-75
2023/02/11 10:39:17;;;;;;;11.87;4.30;;;5.50;98.00;;;;;;5011960;28;20454;-75
2023/02/11 10:41:47;;;;;;;14.80;5.00;;;5.70;98.00;;;;;;5012129;28;20461;-75
2023/02/11 10:44:23;;;;;;;12.97;5.63;;;5.80;98.00;;;;;;5011923;28;20965;-75
2023/02/11 10:46:51;;;;;;;19.13;5.30;;;5.90;98.00;;;;;;5011721;28;20524;-75
2023/02/11 10:52:20;;;;;;;10.77;4.43;;;6.10;98.00;;;;;;5150286;27;20538;-75
2023/02/11 10:55:02;;;;;;;9.40;4.30;;;6.40;98.00;;;;;;5129431;28;20458;-74
2023/02/11 10:57:34;;;;;;;7.10;3.97;;;6.60;98.00;;;;;;5129697;28;20468;-74
2023/02/11 11:00:06;;;;;;;6.30;4.13;;;6.80;98.00;;;;;;5129309;28;20875;-75
2023/02/11 11:02:37;;;;;;;6.33;3.50;;;7.00;98.00;;;;;;5129824;28;20454;-74
2023/02/11 11:05:14;;;;;;;9.10;4.20;;;7.20;98.00;;;;;;5129917;28;20488;-74
2023/02/11 11:07:53;;;;;;;7.47;3.80;;;7.20;98.00;;;;;;5129959;28;20507;-75
2023/02/11 11:10:34;;;;;;;7.20;3.70;;;7.40;98.00;;;;;;5128923;28;20953;-74
2023/02/11 11:13:02;;;;;;;7.13;3.07;;;7.50;98.00;;;;;;5130227;27;20466;-75
2023/02/11 11:15:30;;;;;;;7.80;3.33;;;7.70;98.00;;;;;;5129814;28;20476;-75
2023/02/11 11:18:14;;;;;;;5.73;3.63;;;7.90;98.00;;;;;;5129650;28;20460;-75
2023/02/11 11:20:53;;;;;;;9.90;3.90;;;8.10;98.00;;;;;;5130438;27;20488;-75
2023/02/11 11:23:24;;;;;;;4.97;3.03;;;8.30;98.00;;;;;;5129684;28;21008;-75
2023/02/11 11:26:03;;;;;;;4.37;2.40;;;8.50;98.00;;;;;;5129318;27;20521;-75
2023/02/11 11:28:37;;;;;;;6.73;3.37;;;8.80;98.00;;;;;;5129568;28;20555;-75
2023/02/11 11:31:05;;;;;;;12.13;3.20;;;9.10;98.00;;;;;;5129424;28;20637;-74
2023/02/11 11:33:36;;;;;;;17.73;3.93;;;9.20;98.00;;;;;;5111375;28;20518;-74
2023/02/11 11:36:08;;;;;;;10.23;4.20;;;9.40;98.00;;;;;;5129105;28;20465;-75
2023/02/11 11:38:42;;;;;;;10.23;4.00;;;9.60;98.00;;;;;;5129254;28;20465;-74
2023/02/11 11:41:22;;;;;;;9.20;3.83;;;9.80;98.00;;;;;;5129336;28;20941;-74
2023/02/11 11:44:01;;;;;;;7.90;3.67;;;10.10;98.00;;;;;;5128190;28;20473;-74
2023/02/11 11:46:32;;;;;;;10.63;4.13;;;10.40;98.00;;;;;;5129341;28;20458;-74
2023/02/11 11:49:10;;;;;;;7.50;3.30;;;10.90;98.00;;;;;;5129030;27;20470;-74
2023/02/11 11:51:41;;;;;;;6.43;3.63;;;11.20;97.60;;;;;;5129054;28;20478;-75
2023/02/11 11:54:13;;;;;;;7.80;3.77;;;11.40;96.90;;;;;;5126400;28;20468;-75
2023/02/11 11:56:47;;;;;;;6.60;3.50;;;11.50;96.30;;;;;;5130124;27;20477;-75
2023/02/11 11:59:15;;;;;;;9.13;3.80;;;11.50;96.00;;;;;;5129571;27;20458;-76
2023/02/11 12:01:59;;;;;;;6.30;3.70;;;11.40;95.80;;;;;;5125701;27;20534;-76
2023/02/11 12:04:55;;;;;;;7.90;3.57;;;11.50;95.60;;;;;;5115323;28;20452;-76
2023/02/11 12:07:33;;;;;;;10.73;3.83;;;11.70;94.20;;;;;;5109323;28;20466;-77
2023/02/11 12:10:25;;;;;;;6.20;3.67;;;12.10;94.50;;;;;;5115110;28;20458;-77
2023/02/11 12:13:00;;;;;;;10.40;3.90;;;12.60;94.10;;;;;;5115319;28;20454;-76
2023/02/11 12:15:34;;;;;;;7.10;3.50;;;12.50;92.80;;;;;;5113728;28;20462;-76
2023/02/11 12:18:34;;;;;;;6.13;3.00;;;12.10;93.30;;;;;;5115022;28;20927;-74
2023/02/11 12:21:28;;;;;;;5.37;3.20;;;11.90;93.90;;;;;;5114632;28;20947;-74
2023/02/11 12:24:10;;;;;;;7.70;3.70;;;11.70;94.90;;;;;;5112577;28;20447;-74
2023/02/11 12:26:46;;;;;;;4.57;2.83;;;11.50;95.20;;;;;;5113312;28;20461;-74
2023/02/11 12:29:22;;;;;;;5.93;3.47;;;11.30;96.90;;;;;;5114744;28;20465;-74
2023/02/11 12:32:08;;;;;;;7.07;3.10;;;11.00;97.30;;;;;;5080632;28;20534;-74
2023/02/11 12:34:57;;;;;;;4.87;3.20;;;10.90;98.00;;;;;;5114710;28;21044;-74
2023/02/11 12:37:37;;;;;;;7.30;3.60;;;10.70;97.30;;;;;;5113265;28;20463;-74
2023/02/11 12:40:15;;;;;;;3.30;1.93;;;10.70;97.90;;;;;;5113351;28;20516;-64
2023/02/11 12:43:17;;;;;;;6.03;3.30;;;10.80;98.00;;;;;;5114791;28;20461;-64
2023/02/11 12:46:03;;;;;;;6.43;3.23;;;11.90;98.00;;;;;;5114319;28;20458;-74
2023/02/11 12:48:48;;;;;;;7.40;3.27;;;12.20;95.40;;;;;;5113285;28;20534;-75
2023/02/11 12:51:27;;;;;;;10.57;4.37;;;12.10;95.60;;;;;;5113961;28;20503;-75
2023/02/11 12:54:14;;;;;;;11.93;4.37;;;11.70;96.40;;;;;;5112858;28;20900;-74
2023/02/11 12:56:50;;;;;;;6.47;3.53;;;11.10;96.60;;;;;;5114241;28;20930;-75
2023/02/11 12:59:29;;;;;;;8.70;3.80;;;11.10;98.00;;;;;;5114321;28;20456;-75
2023/02/11 13:01:59;;;;;;;4.10;2.97;;;10.80;98.00;;;;;;5114293;28;20455;-75
2023/02/11 13:04:33;;;;;;;9.67;3.87;;;10.90;98.00;;;;;;5113980;28;20453;-74
2023/02/11 13:07:05;;;;;;;6.70;3.57;;;10.90;98.00;;;;;;5113887;28;20458;-75
2023/02/11 13:09:39;;;;;;;6.90;3.47;;;10.60;98.00;;;;;;5114182;28;20544;-74
2023/02/11 13:14:52;;;;;;;8.87;4.40;;;10.20;98.00;;;;;;5112388;28;20469;-74
2023/02/11 13:17:29;;;;;;;15.60;5.07;;;10.30;98.00;;;;;;5112581;28;20457;-74